ADDS METAR Data INFO
IDs: Format: Raw Decoded Include TAF

Data at: 0213 UTC 18 Jan 2018

KRNV 180155Z AUTO 36004KT 10SM CLR M07/M10 A3066 RMK AO2 T10701102
KRNV 180135Z AUTO 35004KT 10SM CLR M07/M10 A3066 RMK AO2 T10681103
KRNV 180115Z AUTO 36006KT 10SM CLR M06/M10 A3066 RMK AO2 T10651103
KRNV 180055Z AUTO 35006KT 10SM CLR M06/M10 A3067 RMK AO2 T10631104
KRNV 180035Z AUTO 35006KT 10SM CLR M06/M10 A3067 RMK AO2 T10611104
KRNV 180015Z AUTO 35005KT 10SM CLR M06/M10 A3067 RMK AO2 T10601101
KRNV 172355Z AUTO 36006KT 10SM CLR M06/M10 A3068 RMK AO2 T10601102 11046 21078
KRNV 172335Z AUTO 36006KT 10SM CLR M06/M11 A3069 RMK AO2 T10571106
KRNV 172315Z AUTO 35005KT 10SM CLR M05/M10 A3069 RMK AO2 T10531105
KRNV 172255Z AUTO 34006KT 10SM CLR M05/M10 A3070 RMK AO2 T10501105
KRNV 172235Z AUTO 34007KT 10SM CLR M05/M10 A3070 RMK AO2 T10501105
KRNV 172215Z AUTO 35007KT 10SM CLR M05/M10 A3069 RMK AO2 T10471102
KRNV 172155Z AUTO 34007KT 10SM CLR M05/M10 A3070 RMK AO2 T10461101
KRNV 172135Z AUTO 36006KT 10SM CLR M05/M10 A3070 RMK AO2 T10461101
KRNV 172115Z AUTO 02007KT 10SM CLR M05/M10 A3070 RMK AO2 T10471103
KRNV 172055Z AUTO 36008KT 10SM CLR M05/M10 A3070 RMK AO2 T10481103
KRNV 172035Z AUTO 34007KT 10SM CLR M05/M10 A3071 RMK AO2 T10481101
KRNV 172015Z AUTO 35006KT 10SM CLR M05/M10 A3071 RMK AO2 T10551103
KRNV 171955Z AUTO 35005KT 10SM CLR M06/M10 A3072 RMK AO2 T10561105
KRNV 171935Z AUTO 35006KT 10SM CLR M06/M11 A3073 RMK AO2 T10591106
KRNV 171915Z AUTO 36007KT 10SM CLR M06/M11 A3073 RMK AO2 T10641113
KRNV 171855Z AUTO 35007KT 10SM CLR M07/M11 A3074 RMK AO2 T10671115
KRNV 171835Z AUTO 34003KT 10SM CLR M07/M12 A3076 RMK AO2 T10731121
KRNV 171815Z AUTO 34004KT 10SM CLR M07/M12 A3076 RMK AO2 T10751124
KRNV 171755Z AUTO 35005KT 10SM CLR M08/M13 A3078 RMK AO2 T10781128 11074 21121
KRNV 171735Z AUTO 36006KT 10SM CLR M08/M13 A3079 RMK AO2 T10801128
KRNV 171715Z AUTO 02005KT 10SM CLR M08/M13 A3080 RMK AO2 T10841132
KRNV 171655Z AUTO 34005KT 10SM CLR M08/M13 A3080 RMK AO2 T10831131
KRNV 171635Z AUTO 35004KT 10SM CLR M09/M14 A3080 RMK AO2 T10921138
KRNV 171615Z AUTO 01008KT 10SM CLR M10/M14 A3080 RMK AO2 T10961141
KRNV 171555Z AUTO 36008KT 10SM CLR M10/M14 A3080 RMK AO2 T10961141
KRNV 171535Z AUTO 01008KT 10SM CLR M10/M14 A3079 RMK AO2 T10981142
KRNV 171515Z AUTO 36010KT 10SM CLR M10/M15 A3079 RMK AO2 T11031148
KRNV 171455Z AUTO 01009G15KT 10SM CLR M11/M15 A3078 RMK AO2 T11071150
KRNV 171435Z AUTO 36011KT 10SM CLR M11/M15 A3078 RMK AO2 T11081151
KRNV 171415Z AUTO 35009KT 10SM CLR M11/M15 A3077 RMK AO2 T11121155
KRNV 171355Z AUTO 35008KT 10SM CLR M11/M15 A3076 RMK AO2 T11151155
KRNV 171335Z AUTO 36007KT 10SM CLR M12/M16 A3075 RMK AO2 T11191157
KRNV 171315Z AUTO 36007KT 10SM CLR M12/M16 A3075 RMK AO2 T11211157
KRNV 171255Z AUTO 36008KT 10SM CLR M12/M16 A3074 RMK AO2 T11201157
KRNV 171235Z AUTO 36009KT 10SM CLR M12/M16 A3074 RMK AO2 T11201158
KRNV 171215Z AUTO 36009KT 10SM CLR M12/M16 A3074 RMK AO2 T11191158
KRNV 171155Z AUTO 36009G14KT 10SM CLR M12/M16 A3074 RMK AO2 T11181157 11105 21118
KRNV 171135Z AUTO 36009G14KT 10SM CLR M12/M16 A3073 RMK AO2 T11161156
KRNV 171115Z AUTO 36011KT 10SM CLR M12/M16 A3072 RMK AO2 T11161156
KRNV 171055Z AUTO 36011KT 10SM CLR M11/M16 A3072 RMK AO2 T11151157
KRNV 171035Z AUTO 36012KT 10SM CLR M11/M16 A3073 RMK AO2 T11151157
KRNV 171015Z AUTO 35010KT 10SM CLR M11/M16 A3073 RMK AO2 T11131157
KRNV 170955Z AUTO 35009KT 10SM CLR M11/M15 A3073 RMK AO2 T11121155
KRNV 170935Z AUTO 35009KT 10SM CLR M11/M15 A3072 RMK AO2 T11111154
KRNV 170915Z AUTO 34009KT 10SM CLR M11/M15 A3072 RMK AO2 T11111151
KRNV 170855Z AUTO 35011KT 10SM CLR M11/M16 A3072 RMK AO2 T11101156
KRNV 170835Z AUTO 35009KT 10SM CLR M11/M15 A3071 RMK AO2 T11091155
KRNV 170755Z AUTO 36008KT 10SM CLR M11/M15 A3069 RMK AO2 T11081152
KRNV 170735Z AUTO 36008KT 10SM CLR M11/M15 A3069 RMK AO2 T11091151
KRNV 170715Z AUTO 36006KT 10SM CLR M11/M15 A3070 RMK AO2 T11101152
KRNV 170655Z AUTO 36005KT 10SM CLR M11/M15 A3071 RMK AO2 T11081155
KRNV 170635Z AUTO 36008KT 10SM CLR M11/M15 A3071 RMK AO2 T11061155
KRNV 170615Z AUTO 36011KT 10SM CLR M11/M15 A3071 RMK AO2 T11061152
KRNV 170555Z AUTO 36007KT 10SM CLR M11/M15 A3072 RMK AO2 T11081151 11093 21111 400001111
KRNV 170535Z AUTO 35006KT 10SM CLR M11/M15 A3072 RMK AO2 T11081150
KRNV 170515Z AUTO 36005KT 10SM CLR M11/M15 A3072 RMK AO2 T11101147
KRNV 170455Z AUTO 35005KT 10SM CLR M11/M14 A3073 RMK AO2 T11071145
KRNV 170435Z AUTO 35004KT 10SM CLR M11/M15 A3072 RMK AO2 T11071147
KRNV 170415Z AUTO 36006KT 10SM CLR M10/M15 A3072 RMK AO2 T11051150
KRNV 170355Z AUTO 36006KT 10SM CLR M10/M14 A3072 RMK AO2 T11051145
KRNV 170335Z AUTO 01007KT 10SM CLR M10/M15 A3072 RMK AO2 T11031150
KRNV 170315Z AUTO 02007KT 10SM CLR M10/M15 A3072 RMK AO2 T11021151
KRNV 170255Z AUTO 02007KT 10SM CLR M10/M15 A3071 RMK AO2 T11011153
KRNV 170235Z AUTO 02006KT 10SM CLR M10/M15 A3071 RMK AO2 T11011148
KRNV 170215Z AUTO 01006KT 10SM CLR M10/M15 A3071 RMK AO2 T11001149
KRNV 170155Z AUTO 36006KT 10SM CLR M10/M15 A3071 RMK AO2 T10981150
KRNV 170135Z AUTO 36009KT 10SM CLR M10/M15 A3070 RMK AO2 T10971150
KRNV 170115Z AUTO 36009KT 10SM CLR M10/M15 A3071 RMK AO2 T10961149
KRNV 170055Z AUTO 01010KT 10SM CLR M09/M15 A3070 RMK AO2 T10951149
KRNV 170035Z AUTO 01010KT 10SM CLR M09/M15 A3069 RMK AO2 T10951146
KRNV 170015Z AUTO 36008KT 10SM CLR M09/M15 A3069 RMK AO2 T10931149
KRNV 162355Z AUTO 01009KT 10SM CLR M09/M15 A3068 RMK AO2 T10941150 11072 21094
KRNV 162335Z AUTO 01012KT 10SM CLR M09/M15 A3068 RMK AO2 T10911155
KRNV 162315Z AUTO 01011KT 10SM CLR M09/M15 A3068 RMK AO2 T10901155
KRNV 162255Z AUTO 01014KT 10SM CLR M09/M15 A3068 RMK AO2 T10871152
KRNV 162235Z AUTO 36012KT 10SM CLR M08/M14 A3068 RMK AO2 T10821145
KRNV 162215Z AUTO 36012KT 10SM CLR M08/M14 A3067 RMK AO2 T10821144
KRNV 162155Z AUTO 01013KT 10SM CLR M08/M14 A3066 RMK AO2 T10821144
KRNV 162135Z AUTO 01013G17KT 10SM CLR M08/M14 A3066 RMK AO2 T10781145
KRNV 162115Z AUTO 01013KT 10SM CLR M08/M15 A3066 RMK AO2 T10771148
KRNV 162055Z AUTO 36013KT 10SM CLR M08/M15 A3066 RMK AO2 T10771150
KRNV 162035Z AUTO 01015G18KT 10SM CLR M08/M15 A3066 RMK AO2 T10771147
KRNV 162015Z AUTO 36013KT 10SM CLR M08/M15 A3066 RMK AO2 T10771149
KRNV 161955Z AUTO 36015G19KT 10SM CLR M08/M15 A3066 RMK AO2 T10761148
KRNV 161935Z AUTO 01015G21KT 10SM SCT120 M08/M15 A3067 RMK AO2 T10761146
KRNV 161915Z AUTO 36014KT 10SM BKN120 M08/M14 A3067 RMK AO2 T10781136
KRNV 161855Z AUTO 36012KT 10SM SCT120 M08/M13 A3067 RMK AO2 T10771135
KRNV 161835Z AUTO 36014KT 10SM BKN120 M08/M13 A3068 RMK AO2 T10781132
KRNV 161815Z AUTO 36013G19KT 10SM SCT120 M08/M13 A3069 RMK AO2 T10791134
KRNV 161755Z AUTO 35016KT 10SM BKN120 M08/M13 A3070 RMK AO2 T10781135 11061 21080
KRNV 161735Z AUTO 36017G20KT 10SM BKN120 M08/M13 A3071 RMK AO2 T10771134
KRNV 161715Z AUTO 35015KT 10SM SCT028 OVC120 M07/M13 A3071 RMK AO2 T10751130
KRNV 161655Z AUTO 35015KT 10SM BKN028 BKN060 OVC110 M07/M12 A3071 RMK AO2 T10711124
KRNV 161635Z AUTO 35015G20KT 10SM SCT028 BKN050 OVC100 M07/M12 A3071 RMK AO2 T10701121
KRNV 161615Z AUTO 35013G18KT 10SM SCT050 BKN100 M07/M13 A3071 RMK AO2 T10701128
KRNV 161555Z AUTO 36015KT 10SM OVC050 M07/M13 A3071 RMK AO2 T10711127
KRNV 161535Z AUTO 36015G23KT 10SM SCT019 BKN034 OVC050 M07/M12 A3071 RMK AO2 T10731122
KRNV 161515Z AUTO 36017KT 2 1/2SM -SN SCT019 BKN031 OVC045 M08/M12 A3071 RMK AO2 T10781116
KRNV 161455Z AUTO 36016G20KT 3SM -SN BKN046 OVC060 M08/M11 A3070 RMK AO2 T10791111
KRNV 161435Z AUTO 36018KT 7SM -SN SCT013 OVC060 M08/M11 A3070 RMK AO2 T10781109
KRNV 161415Z AUTO 36018G24KT 7SM SCT013 BKN040 OVC060 M08/M10 A3069 RMK AO2 T10771102